createdAt,value
2023-02-02T00:38:47.251Z,32.52
2023-02-02T00:39:47.236Z,29.28
2023-02-02T00:40:47.212Z,33.51
2023-02-02T00:41:47.210Z,27.10
2023-02-02T00:42:47.164Z,32.02
2023-02-02T00:43:47.135Z,37.24
2023-02-02T00:44:47.105Z,32.18
2023-02-02T00:45:47.101Z,33.80
2023-02-02T00:46:47.087Z,39.52
2023-02-02T00:47:47.049Z,30.07
2023-02-02T00:48:47.022Z,28.29
2023-02-02T00:49:47.034Z,32.38
2023-02-02T00:50:46.978Z,32.48
2023-02-02T00:51:46.953Z,27.91
2023-02-02T00:52:46.916Z,27.00
2023-02-02T00:53:46.905Z,33.99
2023-02-02T00:54:46.879Z,34.29
2023-02-02T00:55:46.843Z,29.03
2023-02-02T00:56:46.815Z,29.28
2023-02-02T00:57:46.792Z,29.41
2023-02-02T00:58:46.777Z,32.04
2023-02-02T00:59:46.743Z,28.33
2023-02-02T01:00:46.778Z,31.43
2023-02-02T01:01:46.725Z,34.82
2023-02-02T01:02:46.673Z,31.03
2023-02-02T01:03:46.624Z,32.91
2023-02-02T01:04:46.591Z,33.62
2023-02-02T01:05:46.573Z,31.15
2023-02-02T01:06:46.545Z,27.63
2023-02-02T01:07:46.536Z,32.76
2023-02-02T01:08:46.509Z,36.71
2023-02-02T01:09:46.482Z,34.13
2023-02-02T01:10:46.445Z,33.51
2023-02-02T01:11:46.413Z,33.50
2023-02-02T01:12:46.385Z,35.78
2023-02-02T01:13:46.361Z,30.38
2023-02-02T01:14:46.338Z,31.18
2023-02-02T01:15:46.319Z,32.36
2023-02-02T01:16:46.336Z,33.78
2023-02-02T01:17:46.251Z,34.61
2023-02-02T01:18:46.231Z,37.25
2023-02-02T01:19:46.224Z,32.72
2023-02-02T01:20:46.172Z,37.72
2023-02-02T01:21:46.183Z,31.56
2023-02-02T01:22:46.138Z,32.06
2023-02-02T01:23:46.107Z,33.30
2023-02-02T01:24:46.073Z,32.54
2023-02-02T01:25:46.049Z,32.42
2023-02-02T01:26:46.034Z,33.78
2023-02-02T01:27:45.973Z,29.72
2023-02-02T01:28:45.944Z,30.17
2023-02-02T01:29:45.944Z,28.56
2023-02-02T01:30:45.890Z,27.74
2023-02-02T01:31:45.899Z,29.27
2023-02-02T01:32:45.825Z,27.67
2023-02-02T01:33:45.841Z,27.84
2023-02-02T01:34:45.780Z,31.39
2023-02-02T01:35:45.765Z,32.26
2023-02-02T01:36:45.737Z,34.51
2023-02-02T01:37:45.721Z,34.01
2023-02-02T01:38:45.677Z,31.60
2023-02-02T01:39:45.639Z,31.80
2023-02-02T01:40:45.630Z,31.84
2023-02-02T01:41:45.578Z,26.72
2023-02-02T01:42:45.550Z,30.93
2023-02-02T01:43:45.620Z,34.53
2023-02-02T01:44:45.493Z,29.58
2023-02-02T01:45:45.531Z,29.72
2023-02-02T01:46:45.458Z,34.01
2023-02-02T01:47:45.406Z,35.78
2023-02-02T01:48:45.379Z,34.04
2023-02-02T01:49:45.363Z,29.81
2023-02-02T01:50:45.329Z,33.41
2023-02-02T01:51:45.311Z,32.84
2023-02-02T01:52:45.272Z,31.69
2023-02-02T01:53:45.236Z,28.50
2023-02-02T01:54:45.212Z,30.62
2023-02-02T01:55:45.178Z,30.39
2023-02-02T01:56:45.144Z,30.96
2023-02-02T01:57:45.134Z,30.14
2023-02-02T01:58:45.104Z,27.54
2023-02-02T01:59:45.111Z,30.52
2023-02-02T02:00:46.930Z,32.91
2023-02-02T02:01:45.000Z,32.54
2023-02-02T02:02:44.995Z,37.48
2023-02-02T02:03:44.940Z,35.61
2023-02-02T02:04:44.909Z,36.71
2023-02-02T02:05:44.918Z,34.14
2023-02-02T02:06:44.856Z,33.23
2023-02-02T02:07:44.821Z,28.96
2023-02-02T02:08:44.792Z,27.29
2023-02-02T02:09:44.758Z,30.96
2023-02-02T02:10:44.726Z,29.93
2023-02-02T02:11:44.689Z,27.72
2023-02-02T02:12:44.660Z,30.67
2023-02-02T02:13:44.647Z,29.36
2023-02-02T02:14:44.610Z,31.55
2023-02-02T02:15:44.599Z,28.89
2023-02-02T02:16:44.566Z,33.15
2023-02-02T02:17:44.534Z,29.03
2023-02-02T02:18:44.520Z,25.67
2023-02-02T02:19:44.495Z,31.65
2023-02-02T02:20:44.437Z,29.10
2023-02-02T02:21:44.423Z,29.32
2023-02-02T02:22:44.404Z,35.24
2023-02-02T02:23:44.357Z,32.35
2023-02-02T02:24:44.332Z,25.31
2023-02-02T02:25:44.305Z,30.37
2023-02-02T02:26:44.343Z,34.77
2023-02-02T02:27:44.244Z,35.40
2023-02-02T02:28:44.225Z,35.07
2023-02-02T02:29:44.193Z,30.54
2023-02-02T02:30:44.244Z,36.42
2023-02-02T02:31:44.214Z,29.87
2023-02-02T02:32:44.107Z,30.38
2023-02-02T02:33:44.074Z,31.60
2023-02-02T02:34:44.052Z,33.57
2023-02-02T02:35:44.034Z,33.30
2023-02-02T02:36:44.001Z,33.45
2023-02-02T02:37:43.977Z,31.47
2023-02-02T02:52:43.583Z,31.11
2023-02-02T02:53:43.533Z,32.60
2023-02-02T02:57:43.434Z,27.26
2023-02-02T02:58:43.400Z,30.09
2023-02-02T02:59:43.363Z,32.31
2023-02-02T03:00:43.387Z,33.36
2023-02-02T03:01:43.350Z,29.42
2023-02-02T03:02:43.336Z,34.01
2023-02-02T03:03:43.254Z,28.65
2023-02-02T03:04:43.245Z,28.52
2023-02-02T03:05:43.221Z,31.49
2023-02-02T03:06:43.179Z,30.77
2023-02-02T03:07:43.161Z,37.55
2023-02-02T03:08:43.194Z,37.63
2023-02-02T03:09:43.114Z,31.15
2023-02-02T03:10:43.123Z,35.24
2023-02-02T03:11:43.053Z,36.13
2023-02-02T03:12:43.044Z,30.80
2023-02-02T03:13:43.017Z,30.27
2023-02-02T03:14:42.979Z,31.66
2023-02-02T03:15:42.961Z,34.09
2023-02-02T03:16:42.924Z,34.26
2023-02-02T03:17:42.883Z,29.26
2023-02-02T03:18:42.859Z,29.50
2023-02-02T03:19:42.848Z,29.15
2023-02-02T03:38:42.289Z,34.15
2023-02-02T07:51:40.150Z,196.48
2023-02-02T07:52:37.834Z,196.67
2023-02-02T07:53:37.761Z,196.69
2023-02-02T07:54:37.750Z,196.85
2023-02-02T07:55:37.714Z,195.05
2023-02-02T07:56:37.738Z,197.17
2023-02-02T07:57:37.757Z,189.43
2023-02-02T07:58:38.556Z,195.18
2023-02-02T07:59:37.633Z,195.16
2023-02-02T08:00:37.698Z,191.32
2023-02-02T08:01:37.571Z,188.40
2023-02-02T08:02:37.540Z,188.75
2023-02-02T08:03:37.484Z,189.11
2023-02-02T08:04:37.451Z,189.40
2023-02-02T08:05:37.440Z,186.39
2023-02-02T08:06:37.393Z,191.22
2023-02-02T08:07:37.406Z,191.75
2023-02-02T08:09:37.328Z,184.90
2023-02-02T08:10:37.307Z,181.13
2023-02-02T08:11:37.262Z,180.84
2023-02-02T08:12:37.231Z,177.08
2023-02-02T08:13:37.221Z,176.44
2023-02-02T08:14:37.180Z,176.56
2023-02-02T08:15:37.169Z,174.37
2023-02-02T08:16:37.242Z,174.53
2023-02-02T08:17:37.134Z,176.72
2023-02-02T08:18:37.103Z,175.64
2023-02-02T08:19:37.061Z,173.93
2023-02-02T08:20:37.045Z,175.09
2023-02-02T08:21:37.021Z,171.17
2023-02-02T08:22:37.031Z,171.28
2023-02-02T08:23:36.977Z,171.36
2023-02-02T08:24:36.942Z,171.64
2023-02-02T08:25:36.930Z,171.68
2023-02-02T08:26:36.931Z,168.99
2023-02-02T08:27:37.956Z,166.91
2023-02-02T08:28:36.860Z,165.50
2023-02-02T08:29:36.828Z,165.17
2023-02-02T08:30:36.793Z,164.63
2023-02-02T08:31:36.868Z,165.92
2023-02-02T08:32:36.738Z,161.82
2023-02-02T08:33:36.786Z,159.21
2023-02-02T08:34:36.689Z,159.93
2023-02-02T08:35:36.654Z,158.81
2023-02-02T08:36:36.635Z,159.31
2023-02-02T08:37:36.607Z,154.85
2023-02-02T08:38:36.581Z,154.89
2023-02-02T08:39:36.557Z,155.15
2023-02-02T08:40:36.636Z,151.25
2023-02-02T08:41:36.498Z,152.41
2023-02-02T08:42:36.480Z,148.58
2023-02-02T08:43:36.452Z,151.11
2023-02-02T08:45:00.995Z,151.62
2023-02-02T08:46:02.150Z,151.69
2023-02-02T08:46:37.524Z,151.93
2023-02-02T08:47:36.401Z,153.32
2023-02-02T08:48:36.377Z,155.46
2023-02-02T08:49:36.319Z,149.43
2023-02-02T08:50:36.291Z,158.37
2023-02-02T08:51:36.283Z,157.99
2023-02-02T08:52:36.239Z,157.77
2023-02-02T08:53:36.220Z,161.41
2023-02-02T08:54:36.192Z,163.36
2023-02-02T08:55:36.176Z,166.82
2023-02-02T08:56:36.173Z,170.13
2023-02-02T08:57:36.110Z,173.01
2023-02-02T08:58:36.095Z,174.30
2023-02-02T08:59:36.056Z,172.60
2023-02-02T09:00:36.011Z,169.92
2023-02-02T09:01:35.985Z,181.18
2023-02-02T09:02:36.020Z,185.62
2023-02-02T09:03:35.962Z,178.87
2023-02-02T09:04:35.930Z,183.75
2023-02-02T09:05:35.938Z,181.61
2023-02-02T09:06:35.858Z,183.44
2023-02-02T09:07:35.821Z,191.16
2023-02-02T09:08:35.847Z,192.03
2023-02-02T09:09:35.797Z,196.37
2023-02-02T09:10:36.440Z,199.30
2023-02-02T09:11:35.739Z,194.13
2023-02-02T09:12:35.692Z,195.45
2023-02-02T09:13:35.697Z,200.32
2023-02-02T09:14:35.658Z,200.83
2023-02-02T09:15:35.644Z,203.51
2023-02-02T09:16:35.633Z,207.67
2023-02-02T09:17:35.566Z,202.21
2023-02-02T09:18:35.526Z,204.15
2023-02-02T09:19:35.494Z,204.68
2023-02-02T09:20:35.463Z,204.42
2023-02-02T09:21:35.435Z,208.14
2023-02-02T09:22:35.490Z,211.54
2023-02-02T09:23:35.404Z,211.71
2023-02-02T09:24:35.393Z,203.05
2023-02-02T09:25:35.327Z,178.57
2023-02-02T09:26:35.412Z,47.38
2023-02-02T09:27:35.272Z,7.32
2023-02-02T09:28:36.127Z,23.33
2023-02-02T09:29:35.263Z,78.66
2023-02-02T09:30:35.290Z,99.65
2023-02-02T09:31:35.315Z,109.06
2023-02-02T09:32:35.266Z,127.57
2023-02-02T09:33:35.265Z,133.28
2023-02-02T09:34:35.240Z,133.76
2023-02-02T09:35:35.253Z,137.28
2023-02-02T09:36:35.226Z,144.99
2023-02-02T09:37:35.213Z,157.00
2023-02-02T09:38:35.193Z,135.19
2023-02-02T09:40:35.139Z,158.14
2023-02-02T09:41:35.116Z,135.83
2023-02-02T09:42:35.115Z,144.99
2023-02-02T09:43:35.079Z,160.06
2023-02-02T09:44:35.077Z,185.79
2023-02-02T09:45:35.121Z,214.68
2023-02-02T09:46:35.017Z,227.76
2023-02-02T09:47:35.004Z,228.15
2023-02-02T09:48:34.993Z,233.02
2023-02-02T09:49:35.005Z,234.69
2023-02-02T09:50:35.118Z,237.24
2023-02-02T09:51:34.927Z,236.67
2023-02-02T09:52:34.892Z,263.18
2023-02-02T09:53:36.584Z,232.21
2023-02-02T09:54:34.831Z,232.88
2023-02-02T09:55:34.809Z,232.52
2023-02-02T09:56:34.802Z,218.19
2023-02-02T09:57:34.778Z,218.74
2023-02-02T09:58:34.741Z,220.24
2023-02-02T09:59:34.732Z,218.47
2023-02-02T10:00:34.916Z,197.59
2023-02-02T10:01:34.718Z,157.38
2023-02-02T10:02:34.652Z,144.91
2023-02-02T10:03:34.772Z,136.08
2023-02-02T10:04:34.600Z,127.86
2023-02-02T10:05:34.592Z,142.58
2023-02-02T10:06:34.553Z,103.11
2023-02-02T10:07:34.541Z,70.68
2023-02-02T10:08:35.580Z,70.10
2023-02-02T10:09:34.528Z,70.72
2023-02-02T10:10:34.496Z,71.88
2023-02-02T10:11:34.445Z,66.83
2023-02-02T10:12:34.426Z,32.12
2023-02-02T10:13:34.425Z,25.00
2023-02-02T10:14:34.422Z,28.91
2023-02-02T10:15:34.422Z,32.79
2023-02-02T10:16:34.426Z,48.23
2023-02-02T10:17:34.365Z,20.67
2023-02-02T10:18:34.356Z,7.38
2023-02-02T10:19:34.338Z,5.94
2023-02-02T10:20:34.330Z,4.87
2023-02-02T10:21:34.320Z,16.02
2023-02-02T10:22:34.338Z,24.60
2023-02-02T10:23:34.304Z,21.18
2023-02-02T10:24:34.304Z,30.78
2023-02-02T10:25:34.309Z,53.71
2023-02-02T10:26:34.338Z,58.52
2023-02-02T10:27:34.310Z,67.40
2023-02-02T10:28:34.292Z,60.51
2023-02-02T10:29:48.090Z,47.97
2023-02-02T10:30:35.347Z,48.22
2023-02-02T10:31:34.414Z,49.07
2023-02-02T10:32:34.267Z,54.99
2023-02-02T10:33:34.264Z,57.01
2023-02-02T10:34:34.261Z,46.74
2023-02-02T10:35:34.253Z,42.68
2023-02-02T10:36:34.259Z,39.66
2023-02-02T10:37:34.244Z,44.23
2023-02-02T10:38:35.987Z,50.08
2023-02-02T10:39:34.233Z,48.31
2023-02-02T10:40:34.215Z,22.75
2023-02-02T10:41:34.207Z,23.68
2023-02-02T10:42:34.245Z,48.45
2023-02-02T10:43:34.186Z,56.94
2023-02-02T10:44:34.180Z,83.87
2023-02-02T10:45:34.158Z,112.31
2023-02-02T10:46:34.318Z,160.57
2023-02-02T10:47:34.140Z,175.33
2023-02-02T10:48:34.124Z,177.48
2023-02-02T10:49:34.111Z,179.92
2023-02-02T10:50:34.093Z,156.90
2023-02-02T10:51:34.101Z,99.47
2023-02-02T10:52:34.058Z,77.07
2023-02-02T10:53:34.081Z,60.70
2023-02-02T10:54:38.126Z,57.58
2023-02-02T10:55:35.047Z,57.88
2023-02-02T10:56:34.036Z,37.94
2023-02-02T10:57:34.139Z,22.42
2023-02-02T10:58:34.093Z,16.94
2023-02-02T10:59:34.019Z,11.39
2023-02-02T11:00:34.006Z,32.01
2023-02-02T11:01:34.138Z,49.31
2023-02-02T11:02:34.037Z,25.29
2023-02-02T11:03:33.985Z,24.92
2023-02-02T11:04:33.989Z,28.08
2023-02-02T11:05:33.979Z,31.05
2023-02-02T11:06:33.987Z,54.42
2023-02-02T11:07:33.965Z,56.42
2023-02-02T11:08:33.993Z,56.94
2023-02-02T11:09:33.965Z,61.06
2023-02-02T11:10:33.993Z,73.03
2023-02-02T11:11:33.955Z,86.47
2023-02-02T11:12:33.993Z,104.18
2023-02-02T11:13:33.995Z,97.17
2023-02-02T11:14:41.880Z,98.81
2023-02-02T11:15:35.021Z,99.17
2023-02-02T11:16:42.519Z,102.31
2023-02-02T11:17:34.926Z,100.16
2023-02-02T11:18:33.904Z,102.70
2023-02-02T11:19:33.869Z,100.02
2023-02-02T11:20:33.865Z,105.38
2023-02-02T11:21:33.845Z,115.80
2023-02-02T11:22:33.835Z,135.49
2023-02-02T11:23:33.836Z,168.19
2023-02-02T11:24:33.815Z,163.08
2023-02-02T11:25:33.789Z,171.64
2023-02-02T11:26:33.798Z,177.89
2023-02-02T11:27:33.744Z,183.21
2023-02-02T11:28:33.749Z,216.50
2023-02-02T11:29:33.728Z,198.74
2023-02-02T11:30:33.744Z,201.97
2023-02-02T11:31:33.798Z,203.78
2023-02-02T11:32:33.663Z,212.17
2023-02-02T11:33:33.767Z,219.20
2023-02-02T11:34:33.620Z,224.09
2023-02-02T11:35:33.666Z,226.45
2023-02-02T11:36:33.585Z,228.04
2023-02-02T11:37:33.593Z,244.45
2023-02-02T11:38:33.578Z,250.00
2023-02-02T11:39:33.532Z,250.00
2023-02-02T11:40:33.528Z,250.00
2023-02-02T11:41:33.505Z,250.00
2023-02-02T11:42:33.490Z,243.45
2023-02-02T11:43:33.493Z,244.07
2023-02-02T11:44:33.459Z,245.36
2023-02-02T11:45:33.431Z,250.00
2023-02-02T11:46:33.483Z,247.74
2023-02-02T11:47:33.397Z,249.66
2023-02-02T11:48:33.365Z,248.18
2023-02-02T11:49:33.343Z,247.12
2023-02-02T11:50:33.334Z,249.45
2023-02-02T11:51:33.307Z,249.42
2023-02-02T11:52:33.267Z,249.28
2023-02-02T11:53:33.272Z,247.86
2023-02-02T11:54:33.245Z,249.87
2023-02-02T11:55:33.225Z,249.21
2023-02-02T11:56:33.173Z,250.00
2023-02-02T11:57:33.136Z,250.20
2023-02-02T11:58:33.121Z,246.13
2023-02-02T11:59:33.104Z,246.06
2023-02-02T12:00:33.073Z,250.00
2023-02-02T12:01:33.041Z,248.53
2023-02-02T12:02:33.016Z,248.72
2023-02-02T12:03:32.985Z,248.84
2023-02-02T12:04:33.026Z,248.90
2023-02-02T12:05:32.930Z,248.95
2023-02-02T12:06:32.890Z,253.00
2023-02-02T12:07:32.880Z,257.58
2023-02-02T12:08:32.851Z,250.00
2023-02-02T12:18:33.146Z,239.19
2023-02-02T12:38:32.045Z,217.71
2023-02-02T12:39:32.017Z,208.92
2023-02-02T12:40:32.029Z,198.29
2023-02-02T12:41:31.981Z,199.58
2023-02-02T12:42:31.948Z,207.86
2023-02-02T12:43:32.603Z,208.50
2023-02-02T12:44:31.951Z,204.23
2023-02-02T12:45:31.893Z,195.63
2023-02-02T12:46:31.854Z,191.18
2023-02-02T12:47:31.823Z,191.32
2023-02-02T12:48:31.821Z,192.80
2023-02-02T12:49:31.792Z,193.03
2023-02-02T12:50:31.789Z,191.85
2023-02-02T12:51:31.761Z,174.45
2023-02-02T12:52:31.728Z,181.91
2023-02-02T12:53:31.697Z,190.77
2023-02-02T12:54:33.434Z,190.63
2023-02-02T12:56:31.668Z,179.84
2023-02-02T12:57:31.633Z,179.96
2023-02-02T12:58:31.627Z,188.21
2023-02-02T12:59:31.604Z,187.81
2023-02-02T13:00:31.577Z,185.26
2023-02-02T13:01:31.632Z,182.83
2023-02-02T13:02:31.591Z,172.55
2023-02-02T13:03:31.512Z,171.68
2023-02-02T13:04:31.497Z,183.83
2023-02-02T13:05:31.484Z,185.22
2023-02-02T13:06:31.452Z,179.48
2023-02-02T13:07:31.436Z,168.30
2023-02-02T13:08:31.401Z,163.90
2023-02-02T13:09:31.379Z,168.84
2023-02-02T13:10:31.380Z,177.98
2023-02-02T13:11:31.346Z,178.01
2023-02-02T13:12:31.317Z,171.82
2023-02-02T13:13:31.327Z,157.90
2023-02-02T13:14:31.299Z,156.54
2023-02-02T13:15:31.296Z,164.81
2023-02-02T13:16:31.285Z,172.78
2023-02-02T13:17:31.220Z,165.19
2023-02-02T13:18:31.221Z,159.84
2023-02-02T13:19:31.191Z,159.21
2023-02-02T13:20:31.164Z,157.81
2023-02-02T13:21:31.153Z,164.27
2023-02-02T13:22:31.114Z,165.24
2023-02-02T13:23:31.097Z,162.30
2023-02-02T13:24:31.095Z,154.51
2023-02-02T13:25:31.056Z,150.42
2023-02-02T13:26:31.181Z,155.42
2023-02-02T13:27:31.009Z,163.26
2023-02-02T13:28:30.983Z,160.73
2023-02-02T13:29:30.948Z,159.34
2023-02-02T13:30:30.958Z,147.59
2023-02-02T13:31:30.981Z,149.49
2023-02-02T13:32:30.871Z,155.96
2023-02-02T13:33:30.857Z,160.34
2023-02-02T13:34:30.844Z,159.74
2023-02-02T13:35:30.813Z,143.62
2023-02-02T13:36:30.800Z,142.16
2023-02-02T13:37:30.791Z,142.38
2023-02-02T13:38:30.750Z,143.90
2023-02-02T13:39:30.748Z,146.98
2023-02-02T13:41:30.696Z,142.14
2023-02-02T13:42:30.669Z,141.35
2023-02-02T13:43:30.652Z,146.59
2023-02-02T13:44:30.649Z,152.48
2023-02-02T13:45:30.624Z,152.73
2023-02-02T13:46:30.626Z,146.49
2023-02-02T13:47:30.584Z,140.30
2023-02-02T13:58:30.326Z,139.70
2023-02-02T14:07:30.137Z,140.32
2023-02-02T14:11:30.110Z,142.77
2023-02-02T14:17:29.987Z,145.79
2023-02-02T14:18:29.959Z,142.73
2023-02-02T14:20:29.891Z,132.99
2023-02-02T14:21:29.867Z,136.31
2023-02-02T14:22:29.898Z,143.31
2023-02-02T14:23:29.822Z,143.45
2023-02-02T14:24:29.817Z,135.28
2023-02-02T14:25:29.791Z,133.49
2023-02-02T14:26:29.938Z,135.49
2023-02-02T14:27:29.873Z,140.65
2023-02-02T14:28:29.727Z,144.62
2023-02-02T14:29:29.699Z,141.34
2023-02-02T14:30:29.667Z,133.50
2023-02-02T14:31:29.926Z,133.41
2023-02-02T14:32:29.718Z,136.18
2023-02-02T14:33:29.618Z,140.53
2023-02-02T14:34:29.609Z,142.31
2023-02-02T14:35:29.715Z,136.61
2023-02-02T14:36:29.578Z,134.15
2023-02-02T14:37:29.555Z,137.45
2023-02-02T14:38:29.524Z,141.03
2023-02-02T14:39:29.520Z,142.77
2023-02-02T14:40:29.492Z,142.80
2023-02-02T14:41:29.463Z,135.79
2023-02-02T14:42:29.458Z,132.25
2023-02-02T14:43:29.441Z,139.93
2023-02-02T14:44:29.433Z,142.14
2023-02-02T14:45:29.407Z,138.24
2023-02-02T14:46:29.421Z,132.40
2023-02-02T14:47:29.373Z,128.52
2023-02-02T14:48:29.365Z,134.23
2023-02-02T14:49:29.336Z,134.61
2023-02-02T14:50:29.335Z,138.98
2023-02-02T14:51:29.383Z,130.43
2023-02-02T14:52:29.308Z,127.17
2023-02-02T14:53:29.272Z,131.35
2023-02-02T14:54:29.274Z,130.48
2023-02-02T14:55:29.258Z,135.36
2023-02-02T14:56:29.214Z,133.09
2023-02-02T14:57:29.215Z,126.89
2023-02-02T14:58:29.175Z,127.35
2023-02-02T14:59:29.166Z,129.67
2023-02-02T15:00:29.151Z,135.62
2023-02-02T15:01:29.212Z,135.92
2023-02-02T15:02:29.200Z,126.35
2023-02-02T15:03:29.086Z,123.31
2023-02-02T15:04:29.077Z,130.37
2023-02-02T15:05:29.051Z,130.78
2023-02-02T15:06:29.025Z,134.45
2023-02-02T15:07:28.987Z,129.60
2023-02-02T15:08:28.977Z,127.70
2023-02-02T15:09:28.958Z,123.90
2023-02-02T15:10:28.929Z,130.34
2023-02-02T15:11:28.945Z,133.25
2023-02-02T15:12:28.897Z,135.10
2023-02-02T15:13:28.893Z,126.03
2023-02-02T15:14:28.861Z,123.67
2023-02-02T15:15:29.042Z,130.22
2023-02-02T15:16:28.837Z,133.27
2023-02-02T15:50:28.178Z,128.21
2023-02-02T19:33:23.558Z,138.67
2023-02-02T19:34:23.550Z,138.70
2023-02-02T19:35:23.846Z,137.83
2023-02-02T19:36:23.487Z,140.77
2023-02-02T19:37:23.471Z,137.23
2023-02-02T19:38:23.455Z,139.42
2023-02-02T19:39:23.411Z,141.26
2023-02-02T19:40:23.526Z,138.86
2023-02-02T19:41:23.359Z,139.95
2023-02-02T19:42:23.343Z,140.46
2023-02-02T19:43:23.318Z,141.48
2023-02-02T19:44:23.305Z,141.53
2023-02-02T19:45:23.266Z,141.54
2023-02-02T19:46:23.299Z,141.66
2023-02-02T19:47:23.231Z,140.69
2023-02-02T19:48:23.218Z,141.64
2023-02-02T19:49:23.177Z,140.63
2023-02-02T19:50:23.182Z,140.51
2023-02-02T19:51:23.138Z,140.52
2023-02-02T19:52:23.122Z,141.24
2023-02-02T19:53:23.143Z,140.28
2023-02-02T19:54:23.079Z,140.39
2023-02-02T19:55:23.051Z,140.60
2023-02-02T19:56:23.014Z,141.00
2023-02-02T19:57:22.992Z,140.62
2023-02-02T19:58:22.973Z,139.67
2023-02-02T19:59:22.941Z,136.73
2023-02-02T20:00:22.945Z,137.01
2023-02-02T20:01:22.885Z,138.84
2023-02-02T20:02:22.870Z,137.78
2023-02-02T20:03:23.049Z,140.14
2023-02-02T20:04:22.828Z,135.27
2023-02-02T20:05:22.800Z,139.83
2023-02-02T20:06:22.786Z,141.92
2023-02-02T20:07:22.756Z,139.00
2023-02-02T20:08:22.754Z,138.77
2023-02-02T20:09:22.718Z,138.37
2023-02-02T20:10:22.694Z,142.04
2023-02-02T20:11:22.676Z,140.79
2023-02-02T20:12:22.669Z,141.69
2023-02-02T20:13:22.666Z,139.45
2023-02-02T20:14:22.627Z,139.81
2023-02-02T20:15:22.601Z,137.59
2023-02-02T20:16:22.612Z,139.86
2023-02-02T20:17:22.560Z,138.91
2023-02-02T20:18:22.552Z,140.59
2023-02-02T20:19:22.507Z,136.69
2023-02-02T20:20:22.515Z,138.46
2023-02-02T20:21:22.472Z,140.24
2023-02-02T20:22:22.433Z,141.08
2023-02-02T20:23:22.407Z,138.14
2023-02-02T20:24:22.455Z,138.14
2023-02-02T20:25:22.367Z,138.08
2023-02-02T20:26:22.391Z,138.92
2023-02-02T20:27:22.312Z,139.98
2023-02-02T20:28:22.291Z,139.36
2023-02-02T20:29:22.306Z,140.05
2023-02-02T20:30:22.249Z,138.76
2023-02-02T20:31:22.379Z,139.60
2023-02-02T20:32:22.221Z,141.14
2023-02-02T20:33:22.190Z,140.38
2023-02-02T20:34:22.166Z,141.02
2023-02-02T20:35:22.120Z,141.11
2023-02-02T20:36:22.133Z,139.37
2023-02-02T20:37:22.084Z,141.49
2023-02-02T20:38:22.090Z,140.03
2023-02-02T20:39:22.048Z,140.40
2023-02-02T20:40:22.027Z,139.53
2023-02-02T20:41:22.042Z,138.77
2023-02-02T20:42:21.986Z,140.34
2023-02-02T20:43:21.963Z,140.20
2023-02-02T20:44:21.927Z,141.19
2023-02-02T20:45:21.907Z,139.60
2023-02-02T20:46:21.919Z,138.79
2023-02-02T20:47:21.858Z,138.35
2023-02-02T20:48:21.830Z,139.88
2023-02-02T20:49:21.793Z,139.35
2023-02-02T20:50:21.822Z,141.31
2023-02-02T20:51:21.786Z,138.99
2023-02-02T20:52:21.732Z,139.03
2023-02-02T20:53:21.718Z,141.02
2023-02-02T20:54:21.702Z,141.10
2023-02-02T20:55:21.667Z,138.43
2023-02-02T20:56:21.644Z,139.71
2023-02-02T20:57:21.610Z,141.01
2023-02-02T20:58:21.599Z,138.80
2023-02-02T20:59:21.571Z,139.31
2023-02-02T21:00:21.557Z,139.63
2023-02-02T21:01:21.553Z,139.78
2023-02-02T21:02:21.560Z,140.38
2023-02-02T21:03:21.495Z,138.15
2023-02-02T21:04:21.496Z,138.94
2023-02-02T21:05:21.462Z,138.93
2023-02-02T21:06:21.456Z,138.52
2023-02-02T21:07:21.431Z,141.01
2023-02-02T21:08:21.412Z,140.76
2023-02-02T21:09:21.379Z,138.82
2023-02-02T21:10:21.356Z,136.37
2023-02-02T21:11:21.338Z,136.87
2023-02-02T21:12:21.324Z,137.71
2023-02-02T21:13:21.326Z,134.97
2023-02-02T21:14:21.287Z,139.35
2023-02-02T21:15:21.270Z,138.26
2023-02-02T21:16:21.259Z,136.10
2023-02-02T21:17:21.258Z,139.51
2023-02-02T21:18:21.200Z,139.66
2023-02-02T21:19:21.180Z,139.93
2023-02-02T21:20:21.203Z,139.81
2023-02-02T21:21:21.177Z,139.29
2023-02-02T21:22:21.136Z,139.08
2023-02-02T21:23:21.086Z,137.79
2023-02-02T21:24:21.068Z,139.98
2023-02-02T21:25:21.030Z,137.66
2023-02-02T21:26:21.030Z,138.19
2023-02-02T21:27:21.026Z,138.56
2023-02-02T21:28:20.947Z,136.51
2023-02-02T21:29:20.933Z,136.03
2023-02-02T21:30:20.904Z,139.23
2023-02-02T21:31:21.008Z,137.18
2023-02-02T21:32:20.841Z,133.95
